Terminal Aerodrome Forecast
Issued by NWS Sterling, VA

Current Version | Previous Version | Graphics & Text | Print | Product List | Glossary On
Versions: 1 2 3 4 5 6 7 8 9 10 11 12 13 14 15 16 17 18 19 20 21 22 23 24 25 26
000
FTUS41 KLWX 281435 AAA
TAFDCA
TAF AMD
KDCA 281435Z 2815/2912 18008KT P6SM SCT250
     FM281900 17004KT P6SM VCTS BKN250CB
     FM290100 16004KT P6SM BKN050
     FM290400 00000KT P6SM BKN090=

USA.gov is the U.S. government's official web portal to all federal, state and local government web resources and services.